sensor_id;sensor_type;location;lat;lon;timestamp;P1;durP1;ratioP1;P2;durP2;ratioP2
12603;SDS011;6367;52.508;13.284;2023-08-06T00:00:20;7.93;;;7.30;;
12603;SDS011;6367;52.508;13.284;2023-08-06T00:02:47;7.20;;;6.70;;
12603;SDS011;6367;52.508;13.284;2023-08-06T00:05:13;8.23;;;7.53;;
12603;SDS011;6367;52.508;13.284;2023-08-06T00:07:43;7.43;;;6.83;;
12603;SDS011;6367;52.508;13.284;2023-08-06T00:10:17;8.10;;;7.40;;
12603;SDS011;6367;52.508;13.284;2023-08-06T00:12:43;8.23;;;7.60;;
12603;SDS011;6367;52.508;13.284;2023-08-06T00:15:10;8.60;;;7.90;;
12603;SDS011;6367;52.508;13.284;2023-08-06T00:17:36;7.90;;;7.30;;
12603;SDS011;6367;52.508;13.284;2023-08-06T00:20:03;8.00;;;7.40;;
12603;SDS011;6367;52.508;13.284;2023-08-06T00:22:30;7.10;;;6.60;;
12603;SDS011;6367;52.508;13.284;2023-08-06T00:25:00;7.00;;;6.40;;
12603;SDS011;6367;52.508;13.284;2023-08-06T00:27:26;7.97;;;7.37;;
12603;SDS011;6367;52.508;13.284;2023-08-06T00:29:52;8.40;;;7.70;;
12603;SDS011;6367;52.508;13.284;2023-08-06T00:32:18;8.67;;;8.00;;
12603;SDS011;6367;52.508;13.284;2023-08-06T00:34:43;8.27;;;7.57;;
12603;SDS011;6367;52.508;13.284;2023-08-06T00:37:09;8.60;;;7.90;;
12603;SDS011;6367;52.508;13.284;2023-08-06T00:39:34;10.10;;;9.10;;
12603;SDS011;6367;52.508;13.284;2023-08-06T00:42:00;7.67;;;7.17;;
12603;SDS011;6367;52.508;13.284;2023-08-06T00:44:26;9.00;;;8.40;;
12603;SDS011;6367;52.508;13.284;2023-08-06T00:46:52;8.90;;;8.20;;
12603;SDS011;6367;52.508;13.284;2023-08-06T00:49:18;9.13;;;8.33;;
12603;SDS011;6367;52.508;13.284;2023-08-06T00:51:44;9.20;;;8.47;;
12603;SDS011;6367;52.508;13.284;2023-08-06T00:54:09;9.23;;;8.33;;
12603;SDS011;6367;52.508;13.284;2023-08-06T00:56:35;9.23;;;8.53;;
12603;SDS011;6367;52.508;13.284;2023-08-06T00:59:03;8.60;;;8.00;;
12603;SDS011;6367;52.508;13.284;2023-08-06T01:01:30;8.83;;;8.00;;
12603;SDS011;6367;52.508;13.284;2023-08-06T01:03:55;8.47;;;7.60;;
12603;SDS011;6367;52.508;13.284;2023-08-06T01:06:23;8.40;;;7.80;;
12603;SDS011;6367;52.508;13.284;2023-08-06T01:09:15;7.97;;;7.27;;
12603;SDS011;6367;52.508;13.284;2023-08-06T01:12:06;8.17;;;7.57;;
12603;SDS011;6367;52.508;13.284;2023-08-06T01:17:21;8.47;;;7.77;;
12603;SDS011;6367;52.508;13.284;2023-08-06T01:19:47;8.90;;;8.20;;
12603;SDS011;6367;52.508;13.284;2023-08-06T01:22:13;8.80;;;8.10;;
12603;SDS011;6367;52.508;13.284;2023-08-06T01:24:39;8.23;;;7.63;;
12603;SDS011;6367;52.508;13.284;2023-08-06T01:27:10;9.00;;;8.20;;
12603;SDS011;6367;52.508;13.284;2023-08-06T01:29:47;8.70;;;8.00;;
12603;SDS011;6367;52.508;13.284;2023-08-06T01:32:20;8.67;;;7.97;;
12603;SDS011;6367;52.508;13.284;2023-08-06T01:34:46;8.30;;;7.57;;
12603;SDS011;6367;52.508;13.284;2023-08-06T01:37:13;8.03;;;7.43;;
12603;SDS011;6367;52.508;13.284;2023-08-06T01:39:40;8.23;;;7.67;;
12603;SDS011;6367;52.508;13.284;2023-08-06T01:42:08;8.63;;;7.87;;
12603;SDS011;6367;52.508;13.284;2023-08-06T01:44:34;8.67;;;7.90;;
12603;SDS011;6367;52.508;13.284;2023-08-06T01:47:00;9.50;;;8.80;;
12603;SDS011;6367;52.508;13.284;2023-08-06T01:49:25;9.20;;;8.50;;
12603;SDS011;6367;52.508;13.284;2023-08-06T01:51:51;9.93;;;9.03;;
12603;SDS011;6367;52.508;13.284;2023-08-06T01:54:16;8.20;;;7.57;;
12603;SDS011;6367;52.508;13.284;2023-08-06T01:56:42;9.10;;;8.20;;
12603;SDS011;6367;52.508;13.284;2023-08-06T01:59:08;8.87;;;8.17;;
12603;SDS011;6367;52.508;13.284;2023-08-06T02:01:33;9.57;;;8.77;;
12603;SDS011;6367;52.508;13.284;2023-08-06T02:03:59;8.70;;;8.00;;
12603;SDS011;6367;52.508;13.284;2023-08-06T02:06:25;8.30;;;7.60;;
12603;SDS011;6367;52.508;13.284;2023-08-06T02:08:50;8.43;;;7.83;;
12603;SDS011;6367;52.508;13.284;2023-08-06T02:11:16;8.67;;;8.00;;
12603;SDS011;6367;52.508;13.284;2023-08-06T02:13:42;9.63;;;8.73;;
12603;SDS011;6367;52.508;13.284;2023-08-06T02:16:07;8.80;;;8.20;;
12603;SDS011;6367;52.508;13.284;2023-08-06T02:18:33;9.17;;;8.37;;
12603;SDS011;6367;52.508;13.284;2023-08-06T02:20:59;8.27;;;7.57;;
12603;SDS011;6367;52.508;13.284;2023-08-06T02:23:25;7.50;;;7.00;;
12603;SDS011;6367;52.508;13.284;2023-08-06T02:28:42;8.83;;;8.03;;
12603;SDS011;6367;52.508;13.284;2023-08-06T02:31:08;9.00;;;8.30;;
12603;SDS011;6367;52.508;13.284;2023-08-06T02:33:34;8.80;;;8.00;;
12603;SDS011;6367;52.508;13.284;2023-08-06T02:36:00;7.97;;;7.20;;
12603;SDS011;6367;52.508;13.284;2023-08-06T02:38:29;9.23;;;8.43;;
12603;SDS011;6367;52.508;13.284;2023-08-06T02:40:56;9.63;;;8.83;;
12603;SDS011;6367;52.508;13.284;2023-08-06T02:43:21;9.23;;;8.40;;
12603;SDS011;6367;52.508;13.284;2023-08-06T02:45:47;9.40;;;8.50;;
12603;SDS011;6367;52.508;13.284;2023-08-06T02:48:13;8.60;;;7.90;;
12603;SDS011;6367;52.508;13.284;2023-08-06T02:50:39;9.30;;;8.53;;
12603;SDS011;6367;52.508;13.284;2023-08-06T02:53:06;8.63;;;7.83;;
12603;SDS011;6367;52.508;13.284;2023-08-06T02:55:32;8.93;;;8.23;;
12603;SDS011;6367;52.508;13.284;2023-08-06T02:57:59;8.60;;;7.87;;
12603;SDS011;6367;52.508;13.284;2023-08-06T03:00:26;9.10;;;8.40;;
12603;SDS011;6367;52.508;13.284;2023-08-06T03:02:51;8.50;;;7.90;;
12603;SDS011;6367;52.508;13.284;2023-08-06T03:05:18;9.90;;;9.10;;
12603;SDS011;6367;52.508;13.284;2023-08-06T03:07:43;9.20;;;8.50;;
12603;SDS011;6367;52.508;13.284;2023-08-06T03:10:09;7.70;;;7.20;;
12603;SDS011;6367;52.508;13.284;2023-08-06T03:12:35;8.53;;;7.73;;
12603;SDS011;6367;52.508;13.284;2023-08-06T03:15:01;9.60;;;8.90;;
12603;SDS011;6367;52.508;13.284;2023-08-06T03:17:26;8.40;;;7.80;;
12603;SDS011;6367;52.508;13.284;2023-08-06T03:19:52;8.47;;;7.83;;
12603;SDS011;6367;52.508;13.284;2023-08-06T03:22:18;8.53;;;7.73;;
12603;SDS011;6367;52.508;13.284;2023-08-06T03:24:43;8.87;;;8.07;;
12603;SDS011;6367;52.508;13.284;2023-08-06T03:27:09;8.03;;;7.33;;
12603;SDS011;6367;52.508;13.284;2023-08-06T03:29:35;8.80;;;8.10;;
12603;SDS011;6367;52.508;13.284;2023-08-06T03:32:00;8.80;;;8.10;;
12603;SDS011;6367;52.508;13.284;2023-08-06T03:34:26;8.37;;;7.60;;
12603;SDS011;6367;52.508;13.284;2023-08-06T03:36:52;8.40;;;7.80;;
12603;SDS011;6367;52.508;13.284;2023-08-06T03:39:17;9.33;;;8.63;;
12603;SDS011;6367;52.508;13.284;2023-08-06T03:41:43;8.27;;;7.67;;
12603;SDS011;6367;52.508;13.284;2023-08-06T03:44:09;8.03;;;7.43;;
12603;SDS011;6367;52.508;13.284;2023-08-06T03:46:34;8.73;;;8.03;;
12603;SDS011;6367;52.508;13.284;2023-08-06T03:49:00;8.80;;;8.00;;
12603;SDS011;6367;52.508;13.284;2023-08-06T03:51:26;8.80;;;8.13;;
12603;SDS011;6367;52.508;13.284;2023-08-06T03:53:51;8.57;;;7.93;;
12603;SDS011;6367;52.508;13.284;2023-08-06T03:56:17;7.80;;;7.20;;
12603;SDS011;6367;52.508;13.284;2023-08-06T03:58:43;10.07;;;9.20;;
12603;SDS011;6367;52.508;13.284;2023-08-06T04:01:09;8.00;;;7.30;;
12603;SDS011;6367;52.508;13.284;2023-08-06T04:03:34;8.70;;;8.10;;
12603;SDS011;6367;52.508;13.284;2023-08-06T04:06:02;8.80;;;8.10;;
12603;SDS011;6367;52.508;13.284;2023-08-06T04:08:28;8.33;;;7.63;;
12603;SDS011;6367;52.508;13.284;2023-08-06T04:10:53;8.50;;;7.80;;
12603;SDS011;6367;52.508;13.284;2023-08-06T04:13:19;8.80;;;8.10;;
12603;SDS011;6367;52.508;13.284;2023-08-06T04:15:45;8.20;;;7.60;;
12603;SDS011;6367;52.508;13.284;2023-08-06T04:18:12;9.93;;;9.13;;
12603;SDS011;6367;52.508;13.284;2023-08-06T04:20:45;8.87;;;8.07;;
12603;SDS011;6367;52.508;13.284;2023-08-06T04:23:11;8.40;;;7.80;;
12603;SDS011;6367;52.508;13.284;2023-08-06T04:25:37;7.17;;;6.63;;
12603;SDS011;6367;52.508;13.284;2023-08-06T04:28:03;7.30;;;6.70;;
12603;SDS011;6367;52.508;13.284;2023-08-06T04:30:29;7.10;;;6.50;;
12603;SDS011;6367;52.508;13.284;2023-08-06T04:32:56;6.87;;;6.37;;
12603;SDS011;6367;52.508;13.284;2023-08-06T04:35:25;7.07;;;6.57;;
12603;SDS011;6367;52.508;13.284;2023-08-06T04:37:50;7.10;;;6.50;;
12603;SDS011;6367;52.508;13.284;2023-08-06T04:40:16;7.10;;;6.60;;
12603;SDS011;6367;52.508;13.284;2023-08-06T04:42:42;7.03;;;6.53;;
12603;SDS011;6367;52.508;13.284;2023-08-06T04:45:07;6.93;;;6.33;;
12603;SDS011;6367;52.508;13.284;2023-08-06T04:47:33;7.70;;;7.10;;
12603;SDS011;6367;52.508;13.284;2023-08-06T04:49:59;6.83;;;6.30;;
12603;SDS011;6367;52.508;13.284;2023-08-06T04:52:25;7.90;;;6.63;;
12603;SDS011;6367;52.508;13.284;2023-08-06T04:54:53;6.03;;;5.50;;
12603;SDS011;6367;52.508;13.284;2023-08-06T04:57:19;6.50;;;6.00;;
12603;SDS011;6367;52.508;13.284;2023-08-06T04:59:45;6.20;;;5.70;;
12603;SDS011;6367;52.508;13.284;2023-08-06T05:02:10;6.17;;;5.67;;
12603;SDS011;6367;52.508;13.284;2023-08-06T05:04:36;6.67;;;6.17;;
12603;SDS011;6367;52.508;13.284;2023-08-06T05:07:02;6.53;;;6.00;;
12603;SDS011;6367;52.508;13.284;2023-08-06T05:09:28;6.17;;;5.67;;
12603;SDS011;6367;52.508;13.284;2023-08-06T05:11:54;6.07;;;5.67;;
12603;SDS011;6367;52.508;13.284;2023-08-06T05:14:19;6.30;;;5.77;;
12603;SDS011;6367;52.508;13.284;2023-08-06T05:16:45;5.90;;;5.47;;
12603;SDS011;6367;52.508;13.284;2023-08-06T05:19:10;5.90;;;5.50;;
12603;SDS011;6367;52.508;13.284;2023-08-06T05:21:36;6.07;;;5.50;;
12603;SDS011;6367;52.508;13.284;2023-08-06T05:24:02;5.70;;;5.30;;
12603;SDS011;6367;52.508;13.284;2023-08-06T05:26:27;5.27;;;4.80;;
12603;SDS011;6367;52.508;13.284;2023-08-06T05:28:53;6.00;;;5.50;;
12603;SDS011;6367;52.508;13.284;2023-08-06T05:31:19;5.80;;;5.40;;
12603;SDS011;6367;52.508;13.284;2023-08-06T05:33:44;5.70;;;5.30;;
12603;SDS011;6367;52.508;13.284;2023-08-06T05:36:10;5.93;;;5.43;;
12603;SDS011;6367;52.508;13.284;2023-08-06T05:38:36;6.03;;;5.53;;
12603;SDS011;6367;52.508;13.284;2023-08-06T05:41:01;5.80;;;5.23;;
12603;SDS011;6367;52.508;13.284;2023-08-06T05:43:27;6.10;;;5.67;;
12603;SDS011;6367;52.508;13.284;2023-08-06T05:45:53;5.47;;;5.07;;
12603;SDS011;6367;52.508;13.284;2023-08-06T05:48:19;5.40;;;5.00;;
12603;SDS011;6367;52.508;13.284;2023-08-06T05:50:44;6.00;;;5.50;;
12603;SDS011;6367;52.508;13.284;2023-08-06T05:53:10;5.93;;;5.43;;
12603;SDS011;6367;52.508;13.284;2023-08-06T05:55:36;5.90;;;5.40;;
12603;SDS011;6367;52.508;13.284;2023-08-06T05:58:01;5.30;;;4.90;;
12603;SDS011;6367;52.508;13.284;2023-08-06T06:00:27;6.00;;;5.50;;
12603;SDS011;6367;52.508;13.284;2023-08-06T06:02:53;6.43;;;5.17;;
12603;SDS011;6367;52.508;13.284;2023-08-06T06:05:18;6.23;;;5.63;;
12603;SDS011;6367;52.508;13.284;2023-08-06T06:07:44;5.40;;;5.00;;
12603;SDS011;6367;52.508;13.284;2023-08-06T06:10:10;6.30;;;5.80;;
12603;SDS011;6367;52.508;13.284;2023-08-06T06:12:35;6.37;;;5.93;;
12603;SDS011;6367;52.508;13.284;2023-08-06T06:15:04;6.70;;;6.20;;
12603;SDS011;6367;52.508;13.284;2023-08-06T06:17:30;5.73;;;5.23;;
12603;SDS011;6367;52.508;13.284;2023-08-06T06:19:56;7.20;;;6.60;;
12603;SDS011;6367;52.508;13.284;2023-08-06T06:22:21;7.00;;;6.37;;
12603;SDS011;6367;52.508;13.284;2023-08-06T06:24:47;6.70;;;6.20;;
12603;SDS011;6367;52.508;13.284;2023-08-06T06:27:13;5.97;;;5.47;;
12603;SDS011;6367;52.508;13.284;2023-08-06T06:29:38;6.60;;;6.00;;
12603;SDS011;6367;52.508;13.284;2023-08-06T06:32:04;7.43;;;6.93;;
12603;SDS011;6367;52.508;13.284;2023-08-06T06:34:30;6.17;;;5.77;;
12603;SDS011;6367;52.508;13.284;2023-08-06T06:36:56;6.40;;;5.47;;
12603;SDS011;6367;52.508;13.284;2023-08-06T06:39:21;6.13;;;5.63;;
12603;SDS011;6367;52.508;13.284;2023-08-06T06:41:47;6.40;;;5.80;;
12603;SDS011;6367;52.508;13.284;2023-08-06T06:44:13;7.53;;;6.93;;
12603;SDS011;6367;52.508;13.284;2023-08-06T06:46:39;6.50;;;6.00;;
12603;SDS011;6367;52.508;13.284;2023-08-06T06:49:05;6.70;;;6.20;;
12603;SDS011;6367;52.508;13.284;2023-08-06T06:51:31;6.67;;;6.07;;
12603;SDS011;6367;52.508;13.284;2023-08-06T06:53:57;7.13;;;6.53;;
12603;SDS011;6367;52.508;13.284;2023-08-06T06:56:23;6.53;;;6.03;;
12603;SDS011;6367;52.508;13.284;2023-08-06T06:58:49;6.63;;;6.20;;
12603;SDS011;6367;52.508;13.284;2023-08-06T07:01:14;6.60;;;6.00;;
12603;SDS011;6367;52.508;13.284;2023-08-06T07:03:40;7.00;;;6.43;;
12603;SDS011;6367;52.508;13.284;2023-08-06T07:06:06;6.70;;;6.20;;
12603;SDS011;6367;52.508;13.284;2023-08-06T07:08:32;6.70;;;6.10;;
12603;SDS011;6367;52.508;13.284;2023-08-06T07:11:04;5.77;;;5.37;;
12603;SDS011;6367;52.508;13.284;2023-08-06T07:13:31;6.97;;;6.47;;
12603;SDS011;6367;52.508;13.284;2023-08-06T07:15:57;8.47;;;6.50;;
12603;SDS011;6367;52.508;13.284;2023-08-06T07:18:23;5.93;;;5.53;;
12603;SDS011;6367;52.508;13.284;2023-08-06T07:20:51;6.13;;;5.63;;
12603;SDS011;6367;52.508;13.284;2023-08-06T07:23:18;6.83;;;6.17;;
12603;SDS011;6367;52.508;13.284;2023-08-06T07:25:48;5.70;;;5.30;;
12603;SDS011;6367;52.508;13.284;2023-08-06T07:28:14;6.03;;;5.50;;
12603;SDS011;6367;52.508;13.284;2023-08-06T07:30:40;5.80;;;5.30;;
12603;SDS011;6367;52.508;13.284;2023-08-06T07:33:07;5.77;;;5.30;;
12603;SDS011;6367;52.508;13.284;2023-08-06T07:35:33;6.33;;;5.83;;
12603;SDS011;6367;52.508;13.284;2023-08-06T07:37:59;6.47;;;5.97;;
12603;SDS011;6367;52.508;13.284;2023-08-06T07:40:25;6.13;;;5.73;;
12603;SDS011;6367;52.508;13.284;2023-08-06T07:42:50;7.00;;;6.50;;
12603;SDS011;6367;52.508;13.284;2023-08-06T07:45:16;8.10;;;7.50;;
12603;SDS011;6367;52.508;13.284;2023-08-06T07:47:42;6.60;;;6.13;;
12603;SDS011;6367;52.508;13.284;2023-08-06T07:50:08;7.03;;;6.50;;
12603;SDS011;6367;52.508;13.284;2023-08-06T07:52:34;6.80;;;6.30;;
12603;SDS011;6367;52.508;13.284;2023-08-06T07:55:00;8.70;;;8.03;;
12603;SDS011;6367;52.508;13.284;2023-08-06T07:57:29;7.77;;;7.17;;
12603;SDS011;6367;52.508;13.284;2023-08-06T07:59:59;6.60;;;6.10;;
12603;SDS011;6367;52.508;13.284;2023-08-06T08:02:25;8.07;;;7.37;;
12603;SDS011;6367;52.508;13.284;2023-08-06T08:04:51;7.20;;;6.60;;
12603;SDS011;6367;52.508;13.284;2023-08-06T08:07:18;8.27;;;7.57;;
12603;SDS011;6367;52.508;13.284;2023-08-06T08:09:43;8.47;;;7.40;;
12603;SDS011;6367;52.508;13.284;2023-08-06T08:12:09;7.60;;;6.90;;
12603;SDS011;6367;52.508;13.284;2023-08-06T08:14:35;7.60;;;6.93;;
12603;SDS011;6367;52.508;13.284;2023-08-06T08:17:02;7.17;;;6.57;;
12603;SDS011;6367;52.508;13.284;2023-08-06T08:19:28;7.80;;;7.17;;
12603;SDS011;6367;52.508;13.284;2023-08-06T08:21:54;8.30;;;7.60;;
12603;SDS011;6367;52.508;13.284;2023-08-06T08:24:20;7.80;;;7.20;;
12603;SDS011;6367;52.508;13.284;2023-08-06T08:26:49;8.63;;;7.77;;
12603;SDS011;6367;52.508;13.284;2023-08-06T08:29:18;7.97;;;7.27;;
12603;SDS011;6367;52.508;13.284;2023-08-06T08:31:45;8.20;;;7.50;;
12603;SDS011;6367;52.508;13.284;2023-08-06T08:34:13;7.30;;;6.77;;
12603;SDS011;6367;52.508;13.284;2023-08-06T08:36:40;7.90;;;7.20;;
12603;SDS011;6367;52.508;13.284;2023-08-06T08:39:05;8.07;;;7.47;;
12603;SDS011;6367;52.508;13.284;2023-08-06T08:41:31;7.67;;;6.97;;
12603;SDS011;6367;52.508;13.284;2023-08-06T08:43:58;7.60;;;6.90;;
12603;SDS011;6367;52.508;13.284;2023-08-06T08:46:27;7.53;;;6.97;;
12603;SDS011;6367;52.508;13.284;2023-08-06T08:48:55;7.53;;;7.00;;
12603;SDS011;6367;52.508;13.284;2023-08-06T08:51:24;8.23;;;7.53;;
12603;SDS011;6367;52.508;13.284;2023-08-06T08:53:54;8.83;;;8.13;;
12603;SDS011;6367;52.508;13.284;2023-08-06T08:56:24;8.93;;;8.10;;
12603;SDS011;6367;52.508;13.284;2023-08-06T08:58:50;9.40;;;8.60;;
12603;SDS011;6367;52.508;13.284;2023-08-06T09:01:20;9.67;;;8.87;;
12603;SDS011;6367;52.508;13.284;2023-08-06T09:03:47;9.53;;;8.83;;
12603;SDS011;6367;52.508;13.284;2023-08-06T09:06:13;9.50;;;8.73;;
12603;SDS011;6367;52.508;13.284;2023-08-06T09:08:43;10.40;;;9.60;;
12603;SDS011;6367;52.508;13.284;2023-08-06T09:11:32;10.70;;;9.70;;
12603;SDS011;6367;52.508;13.284;2023-08-06T09:14:08;9.27;;;8.57;;
12603;SDS011;6367;52.508;13.284;2023-08-06T09:16:35;9.47;;;8.73;;
12603;SDS011;6367;52.508;13.284;2023-08-06T09:19:11;10.63;;;9.63;;
12603;SDS011;6367;52.508;13.284;2023-08-06T09:21:40;9.70;;;9.00;;
12603;SDS011;6367;52.508;13.284;2023-08-06T09:24:11;9.60;;;8.90;;
12603;SDS011;6367;52.508;13.284;2023-08-06T09:26:37;10.63;;;9.73;;
12603;SDS011;6367;52.508;13.284;2023-08-06T09:29:08;9.20;;;8.23;;
12603;SDS011;6367;52.508;13.284;2023-08-06T09:31:40;8.50;;;7.90;;
12603;SDS011;6367;52.508;13.284;2023-08-06T09:34:10;9.73;;;8.80;;
12603;SDS011;6367;52.508;13.284;2023-08-06T09:36:40;10.43;;;9.63;;
12603;SDS011;6367;52.508;13.284;2023-08-06T09:39:16;9.43;;;8.67;;
12603;SDS011;6367;52.508;13.284;2023-08-06T09:41:55;9.97;;;9.17;;
12603;SDS011;6367;52.508;13.284;2023-08-06T09:44:26;9.97;;;9.27;;
12603;SDS011;6367;52.508;13.284;2023-08-06T09:46:56;9.37;;;8.57;;
12603;SDS011;6367;52.508;13.284;2023-08-06T09:49:28;9.13;;;8.43;;
12603;SDS011;6367;52.508;13.284;2023-08-06T09:52:07;9.53;;;8.83;;
12603;SDS011;6367;52.508;13.284;2023-08-06T09:54:37;10.30;;;9.50;;
12603;SDS011;6367;52.508;13.284;2023-08-06T09:57:03;9.13;;;8.43;;
12603;SDS011;6367;52.508;13.284;2023-08-06T09:59:30;9.77;;;8.80;;
12603;SDS011;6367;52.508;13.284;2023-08-06T10:01:57;9.97;;;9.03;;
12603;SDS011;6367;52.508;13.284;2023-08-06T10:04:24;9.80;;;9.00;;
12603;SDS011;6367;52.508;13.284;2023-08-06T10:06:50;9.80;;;8.93;;
12603;SDS011;6367;52.508;13.284;2023-08-06T10:09:16;10.50;;;9.70;;
12603;SDS011;6367;52.508;13.284;2023-08-06T10:11:43;10.13;;;9.37;;
12603;SDS011;6367;52.508;13.284;2023-08-06T10:14:14;10.00;;;9.30;;
12603;SDS011;6367;52.508;13.284;2023-08-06T10:16:45;11.17;;;10.33;;
12603;SDS011;6367;52.508;13.284;2023-08-06T10:19:12;9.90;;;9.20;;
12603;SDS011;6367;52.508;13.284;2023-08-06T10:21:40;9.80;;;9.00;;
12603;SDS011;6367;52.508;13.284;2023-08-06T10:24:06;9.13;;;8.53;;
12603;SDS011;6367;52.508;13.284;2023-08-06T10:26:35;10.00;;;9.17;;
12603;SDS011;6367;52.508;13.284;2023-08-06T10:29:01;10.57;;;9.70;;
12603;SDS011;6367;52.508;13.284;2023-08-06T10:31:54;11.00;;;10.10;;
12603;SDS011;6367;52.508;13.284;2023-08-06T10:34:20;9.43;;;8.63;;
12603;SDS011;6367;52.508;13.284;2023-08-06T10:36:46;10.37;;;9.47;;
12603;SDS011;6367;52.508;13.284;2023-08-06T10:39:15;11.77;;;10.87;;
12603;SDS011;6367;52.508;13.284;2023-08-06T10:41:41;8.90;;;8.30;;
12603;SDS011;6367;52.508;13.284;2023-08-06T10:44:09;10.40;;;9.50;;
12603;SDS011;6367;52.508;13.284;2023-08-06T10:46:36;9.77;;;9.07;;
12603;SDS011;6367;52.508;13.284;2023-08-06T10:49:05;9.93;;;9.03;;
12603;SDS011;6367;52.508;13.284;2023-08-06T10:51:32;9.63;;;8.83;;
12603;SDS011;6367;52.508;13.284;2023-08-06T10:53:58;12.63;;;11.43;;
12603;SDS011;6367;52.508;13.284;2023-08-06T10:56:24;11.43;;;10.33;;
12603;SDS011;6367;52.508;13.284;2023-08-06T10:58:53;11.20;;;10.27;;
12603;SDS011;6367;52.508;13.284;2023-08-06T11:01:19;11.97;;;10.97;;
12603;SDS011;6367;52.508;13.284;2023-08-06T11:03:47;10.50;;;9.80;;
12603;SDS011;6367;52.508;13.284;2023-08-06T11:06:18;10.50;;;9.70;;
12603;SDS011;6367;52.508;13.284;2023-08-06T11:08:54;11.10;;;10.20;;
12603;SDS011;6367;52.508;13.284;2023-08-06T11:11:20;10.40;;;9.50;;
12603;SDS011;6367;52.508;13.284;2023-08-06T11:13:49;10.60;;;9.80;;
12603;SDS011;6367;52.508;13.284;2023-08-06T11:16:16;11.97;;;10.90;;
12603;SDS011;6367;52.508;13.284;2023-08-06T11:18:43;11.67;;;10.70;;
12603;SDS011;6367;52.508;13.284;2023-08-06T11:21:10;10.90;;;10.10;;
12603;SDS011;6367;52.508;13.284;2023-08-06T11:23:39;11.80;;;10.80;;
12603;SDS011;6367;52.508;13.284;2023-08-06T11:26:06;12.67;;;11.57;;
12603;SDS011;6367;52.508;13.284;2023-08-06T11:28:32;11.90;;;11.00;;
12603;SDS011;6367;52.508;13.284;2023-08-06T11:30:58;12.37;;;11.40;;
12603;SDS011;6367;52.508;13.284;2023-08-06T11:33:27;12.10;;;11.10;;
12603;SDS011;6367;52.508;13.284;2023-08-06T11:35:56;12.63;;;11.63;;
12603;SDS011;6367;52.508;13.284;2023-08-06T11:38:29;12.60;;;11.60;;
12603;SDS011;6367;52.508;13.284;2023-08-06T11:40:55;13.67;;;12.60;;
12603;SDS011;6367;52.508;13.284;2023-08-06T11:43:21;12.83;;;11.70;;
12603;SDS011;6367;52.508;13.284;2023-08-06T11:45:50;12.97;;;11.77;;
12603;SDS011;6367;52.508;13.284;2023-08-06T11:48:18;14.37;;;13.07;;
12603;SDS011;6367;52.508;13.284;2023-08-06T11:50:44;14.60;;;13.30;;
12603;SDS011;6367;52.508;13.284;2023-08-06T11:53:12;14.40;;;13.10;;
12603;SDS011;6367;52.508;13.284;2023-08-06T11:55:41;14.20;;;13.00;;
12603;SDS011;6367;52.508;13.284;2023-08-06T11:58:09;15.67;;;14.37;;
12603;SDS011;6367;52.508;13.284;2023-08-06T12:00:36;13.67;;;12.37;;
12603;SDS011;6367;52.508;13.284;2023-08-06T12:03:04;14.00;;;12.90;;
12603;SDS011;6367;52.508;13.284;2023-08-06T12:05:30;14.40;;;13.13;;
12603;SDS011;6367;52.508;13.284;2023-08-06T12:07:59;15.63;;;14.20;;
12603;SDS011;6367;52.508;13.284;2023-08-06T12:10:26;14.17;;;12.97;;
12603;SDS011;6367;52.508;13.284;2023-08-06T12:12:53;15.27;;;13.97;;
12603;SDS011;6367;52.508;13.284;2023-08-06T12:15:18;16.63;;;15.13;;
12603;SDS011;6367;52.508;13.284;2023-08-06T12:17:44;17.47;;;15.63;;
12603;SDS011;6367;52.508;13.284;2023-08-06T12:20:10;16.80;;;14.80;;
12603;SDS011;6367;52.508;13.284;2023-08-06T12:22:36;13.00;;;11.87;;
12603;SDS011;6367;52.508;13.284;2023-08-06T12:25:05;9.73;;;8.80;;
12603;SDS011;6367;52.508;13.284;2023-08-06T12:27:33;9.50;;;8.80;;
12603;SDS011;6367;52.508;13.284;2023-08-06T12:29:59;9.50;;;8.70;;
12603;SDS011;6367;52.508;13.284;2023-08-06T12:32:25;10.30;;;9.43;;
12603;SDS011;6367;52.508;13.284;2023-08-06T12:34:51;12.20;;;11.00;;
12603;SDS011;6367;52.508;13.284;2023-08-06T12:37:16;10.73;;;9.93;;
12603;SDS011;6367;52.508;13.284;2023-08-06T12:39:42;10.20;;;9.40;;
12603;SDS011;6367;52.508;13.284;2023-08-06T12:42:08;10.17;;;9.17;;
12603;SDS011;6367;52.508;13.284;2023-08-06T12:44:34;9.57;;;8.77;;
12603;SDS011;6367;52.508;13.284;2023-08-06T12:46:59;10.23;;;9.33;;
12603;SDS011;6367;52.508;13.284;2023-08-06T12:49:25;10.30;;;9.50;;
12603;SDS011;6367;52.508;13.284;2023-08-06T12:51:51;10.53;;;9.67;;
12603;SDS011;6367;52.508;13.284;2023-08-06T12:54:18;9.30;;;8.40;;
12603;SDS011;6367;52.508;13.284;2023-08-06T12:56:45;8.90;;;8.20;;
12603;SDS011;6367;52.508;13.284;2023-08-06T12:59:13;8.57;;;7.80;;
12603;SDS011;6367;52.508;13.284;2023-08-06T13:01:39;9.93;;;8.93;;
12603;SDS011;6367;52.508;13.284;2023-08-06T13:04:05;8.50;;;7.90;;
12603;SDS011;6367;52.508;13.284;2023-08-06T13:06:30;9.23;;;8.43;;
12603;SDS011;6367;52.508;13.284;2023-08-06T13:09:01;10.90;;;10.00;;
12603;SDS011;6367;52.508;13.284;2023-08-06T13:11:28;11.00;;;9.73;;
12603;SDS011;6367;52.508;13.284;2023-08-06T13:13:54;10.00;;;9.10;;
12603;SDS011;6367;52.508;13.284;2023-08-06T13:16:19;10.20;;;9.40;;
12603;SDS011;6367;52.508;13.284;2023-08-06T13:18:45;9.60;;;8.80;;
12603;SDS011;6367;52.508;13.284;2023-08-06T13:21:11;9.73;;;8.73;;
12603;SDS011;6367;52.508;13.284;2023-08-06T13:23:36;9.80;;;9.00;;
12603;SDS011;6367;52.508;13.284;2023-08-06T13:26:02;10.97;;;10.07;;
12603;SDS011;6367;52.508;13.284;2023-08-06T13:28:27;9.50;;;8.70;;
12603;SDS011;6367;52.508;13.284;2023-08-06T13:30:53;10.40;;;9.60;;
12603;SDS011;6367;52.508;13.284;2023-08-06T13:33:19;11.73;;;9.97;;
12603;SDS011;6367;52.508;13.284;2023-08-06T13:35:44;11.07;;;10.07;;
12603;SDS011;6367;52.508;13.284;2023-08-06T13:38:10;12.30;;;11.10;;
12603;SDS011;6367;52.508;13.284;2023-08-06T13:40:36;11.00;;;9.97;;
12603;SDS011;6367;52.508;13.284;2023-08-06T13:43:01;12.70;;;11.50;;
12603;SDS011;6367;52.508;13.284;2023-08-06T13:45:27;11.90;;;10.80;;
12603;SDS011;6367;52.508;13.284;2023-08-06T13:47:53;11.53;;;10.37;;
12603;SDS011;6367;52.508;13.284;2023-08-06T13:50:20;10.93;;;9.93;;
12603;SDS011;6367;52.508;13.284;2023-08-06T13:52:47;11.07;;;10.17;;
12603;SDS011;6367;52.508;13.284;2023-08-06T13:55:12;11.80;;;10.80;;
12603;SDS011;6367;52.508;13.284;2023-08-06T13:57:38;12.40;;;11.30;;
12603;SDS011;6367;52.508;13.284;2023-08-06T14:00:04;12.10;;;11.00;;
12603;SDS011;6367;52.508;13.284;2023-08-06T14:02:30;12.10;;;10.90;;
12603;SDS011;6367;52.508;13.284;2023-08-06T14:04:56;17.13;;;11.20;;
12603;SDS011;6367;52.508;13.284;2023-08-06T14:07:22;11.83;;;10.67;;
12603;SDS011;6367;52.508;13.284;2023-08-06T14:09:47;12.80;;;11.57;;
12603;SDS011;6367;52.508;13.284;2023-08-06T14:12:14;11.97;;;10.97;;
12603;SDS011;6367;52.508;13.284;2023-08-06T14:14:40;11.10;;;10.00;;
12603;SDS011;6367;52.508;13.284;2023-08-06T14:17:06;11.50;;;10.50;;
12603;SDS011;6367;52.508;13.284;2023-08-06T14:19:31;12.00;;;10.90;;
12603;SDS011;6367;52.508;13.284;2023-08-06T14:21:57;11.37;;;10.27;;
12603;SDS011;6367;52.508;13.284;2023-08-06T14:24:23;11.60;;;10.50;;
12603;SDS011;6367;52.508;13.284;2023-08-06T14:26:48;11.77;;;10.57;;
12603;SDS011;6367;52.508;13.284;2023-08-06T14:29:14;12.50;;;11.30;;
12603;SDS011;6367;52.508;13.284;2023-08-06T14:31:40;10.90;;;9.80;;
12603;SDS011;6367;52.508;13.284;2023-08-06T14:34:06;10.03;;;9.10;;
12603;SDS011;6367;52.508;13.284;2023-08-06T14:36:32;11.40;;;10.20;;
12603;SDS011;6367;52.508;13.284;2023-08-06T14:38:58;10.97;;;9.97;;
12603;SDS011;6367;52.508;13.284;2023-08-06T14:41:23;11.47;;;9.50;;
12603;SDS011;6367;52.508;13.284;2023-08-06T14:43:49;10.73;;;9.70;;